Time,TemperatureF,DewpointF,PressureIn,WindDirection,WindDirectionDegrees,WindSpeedMPH,WindSpeedGustMPH,Humidity,HourlyPrecipIn,Conditions,Clouds,dailyrainin,SoftwareType,DateUTC
2013-02-17 00:12:00,24.8,14.7,29.74,ENE,67,2.7,-999.0,65,-99.99,,,0.00,Acu-Link.com,2013-02-17 05:12:00,
2013-02-17 00:28:00,24.4,15.4,29.74,ENE,67,2.2,-999.0,68,-99.99,,,0.00,Acu-Link.com,2013-02-17 05:28:00,
2013-02-17 00:43:00,23.9,15.6,29.74,West,270,0.0,-999.0,70,-99.99,,,0.00,Acu-Link.com,2013-02-17 05:43:00,
2013-02-17 00:58:00,22.5,15.2,29.73,NW,315,0.0,-999.0,73,-99.99,,,0.00,Acu-Link.com,2013-02-17 05:58:00,
2013-02-17 01:13:00,21.7,15.0,29.73,NE,45,0.0,-999.0,75,-99.99,,,0.00,Acu-Link.com,2013-02-17 06:13:00,
2013-02-17 01:28:00,21.2,15.1,29.73,NE,45,0.0,-999.0,77,-99.99,,,0.00,Acu-Link.com,2013-02-17 06:28:00,
2013-02-17 01:43:00,21.0,14.9,29.73,NE,45,0.0,-999.0,77,-99.99,,,0.00,Acu-Link.com,2013-02-17 06:43:00,
2013-02-17 01:58:00,20.5,14.5,29.72,ENE,67,0.0,-999.0,77,-99.99,,,0.00,Acu-Link.com,2013-02-17 06:58:00,
2013-02-17 02:13:00,20.1,14.7,29.73,ESE,112,1.7,-999.0,79,-99.99,,,0.00,Acu-Link.com,2013-02-17 07:13:00,
2013-02-17 02:28:00,19.8,14.6,29.72,East,90,0.0,-999.0,80,-99.99,,,0.00,Acu-Link.com,2013-02-17 07:28:00,
2013-02-17 02:44:00,19.0,14.1,29.73,NNE,22,0.0,-999.0,81,-99.99,,,0.00,Acu-Link.com,2013-02-17 07:44:00,
2013-02-17 02:59:00,18.5,13.9,29.73,NNE,22,2.2,-999.0,82,-99.99,,,0.00,Acu-Link.com,2013-02-17 07:59:00,
2013-02-17 03:14:00,19.0,12.7,29.72,ESE,112,2.2,-999.0,76,-99.99,,,0.00,Acu-Link.com,2013-02-17 08:14:00,
2013-02-17 03:29:00,19.2,9.4,29.72,West,270,3.7,-999.0,65,-99.99,,,0.00,Acu-Link.com,2013-02-17 08:29:00,
2013-02-17 03:44:00,19.6,9.1,29.73,West,270,0.0,-999.0,63,-99.99,,,0.00,Acu-Link.com,2013-02-17 08:44:00,
2013-02-17 03:59:00,19.2,9.7,29.73,East,90,1.7,-999.0,66,-99.99,,,0.00,Acu-Link.com,2013-02-17 08:59:00,
2013-02-17 04:17:00,19.0,8.5,29.73,SSW,202,2.2,-999.0,63,-99.99,,,0.00,Acu-Link.com,2013-02-17 09:17:00,
2013-02-17 04:32:00,19.2,8.3,29.73,West,270,0.0,-999.0,62,-99.99,,,0.00,Acu-Link.com,2013-02-17 09:32:00,
2013-02-17 04:47:00,19.6,8.0,29.73,ENE,67,1.7,-999.0,60,-99.99,,,0.00,Acu-Link.com,2013-02-17 09:47:00,
2013-02-17 05:02:00,19.4,8.2,29.74,East,90,3.2,-999.0,61,-99.99,,,0.00,Acu-Link.com,2013-02-17 10:02:00,
2013-02-17 05:17:00,19.0,8.5,29.74,SSW,202,0.0,-999.0,63,-99.99,,,0.00,Acu-Link.com,2013-02-17 10:17:00,
2013-02-17 05:32:00,18.7,8.6,29.74,West,270,0.0,-999.0,64,-99.99,,,0.00,Acu-Link.com,2013-02-17 10:32:00,
2013-02-17 05:47:00,18.3,8.5,29.73,SSE,157,1.1,-999.0,65,-99.99,,,0.00,Acu-Link.com,2013-02-17 10:47:00,
2013-02-17 06:02:00,18.3,8.2,29.74,WNW,292,2.7,-999.0,64,-99.99,,,0.00,Acu-Link.com,2013-02-17 11:02:00,
2013-02-17 06:18:00,18.7,8.6,29.73,NW,315,2.7,-999.0,64,-99.99,,,0.00,Acu-Link.com,2013-02-17 11:18:00,
2013-02-17 06:33:00,18.5,8.7,29.73,ESE,112,2.2,-999.0,65,-99.99,,,0.00,Acu-Link.com,2013-02-17 11:33:00,
2013-02-17 06:48:00,18.1,8.3,29.73,SE,135,0.0,-999.0,65,-99.99,,,0.00,Acu-Link.com,2013-02-17 11:48:00,
2013-02-17 07:03:00,17.6,8.5,29.74,WNW,292,3.7,-999.0,67,-99.99,,,0.00,Acu-Link.com,2013-02-17 12:03:00,
2013-02-17 07:18:00,18.1,9.0,29.74,West,270,3.2,-999.0,67,-99.99,,,0.00,Acu-Link.com,2013-02-17 12:18:00,
2013-02-17 07:33:00,18.0,8.9,29.75,West,270,3.7,-999.0,67,-99.99,,,0.00,Acu-Link.com,2013-02-17 12:33:00,
2013-02-17 07:48:00,18.9,9.8,29.75,NE,45,2.7,-999.0,67,-99.99,,,0.00,Acu-Link.com,2013-02-17 12:48:00,
2013-02-17 08:03:00,19.8,10.3,29.75,WSW,247,2.2,-999.0,66,-99.99,,,0.00,Acu-Link.com,2013-02-17 13:03:00,
2013-02-17 08:18:00,19.9,10.1,29.76,SSE,157,3.2,-999.0,65,-99.99,,,0.00,Acu-Link.com,2013-02-17 13:18:00,
2013-02-17 08:34:00,20.7,10.5,29.76,NNE,22,3.2,-999.0,64,-99.99,,,0.00,Acu-Link.com,2013-02-17 13:34:00,
2013-02-17 08:49:00,21.6,11.3,29.76,ENE,67,3.2,-999.0,64,-99.99,,,0.00,Acu-Link.com,2013-02-17 13:49:00,
2013-02-17 09:04:00,22.6,11.6,29.76,East,90,0.0,-999.0,62,-99.99,,,0.00,Acu-Link.com,2013-02-17 14:04:00,
2013-02-17 09:19:00,22.5,11.1,29.76,West,270,4.2,-999.0,61,-99.99,,,0.00,Acu-Link.com,2013-02-17 14:19:00,
2013-02-17 09:34:00,22.1,10.7,29.77,West,270,6.8,-999.0,61,-99.99,,,0.00,Acu-Link.com,2013-02-17 14:34:00,
2013-02-17 09:49:00,23.4,11.2,29.77,WNW,292,3.2,-999.0,59,-99.99,,,0.00,Acu-Link.com,2013-02-17 14:49:00,
2013-02-17 10:04:00,23.9,11.3,29.77,NE,45,5.3,-999.0,58,-99.99,,,0.00,Acu-Link.com,2013-02-17 15:04:00,
2013-02-17 10:19:00,24.6,9.9,29.77,West,270,5.3,-999.0,53,-99.99,,,0.00,Acu-Link.com,2013-02-17 15:19:00,
2013-02-17 10:34:00,24.3,10.9,29.77,NNE,22,6.8,-999.0,56,-99.99,,,0.00,Acu-Link.com,2013-02-17 15:34:00,
2013-02-17 10:50:00,25.9,11.6,29.77,ENE,67,4.7,-999.0,54,-99.99,,,0.00,Acu-Link.com,2013-02-17 15:50:00,
2013-02-17 11:05:00,24.8,9.3,29.77,WSW,247,4.2,-999.0,51,-99.99,,,0.00,Acu-Link.com,2013-02-17 16:05:00,
2013-02-17 11:20:00,25.5,9.0,29.77,NE,45,3.7,-999.0,49,-99.99,,,0.00,Acu-Link.com,2013-02-17 16:20:00,
2013-02-17 11:35:00,27.5,13.9,29.77,WNW,292,10.9,-999.0,56,-99.99,,,0.00,Acu-Link.com,2013-02-17 16:35:00,
2013-02-17 11:50:00,22.5,13.9,29.78,West,270,8.3,-999.0,69,-99.99,,,0.00,Acu-Link.com,2013-02-17 16:50:00,
2013-02-17 12:05:00,24.1,14.4,29.78,ESE,112,1.7,-999.0,66,-99.99,,,0.00,Acu-Link.com,2013-02-17 17:05:00,
2013-02-17 12:20:00,24.3,12.1,29.77,SE,135,1.1,-999.0,59,-99.99,,,0.00,Acu-Link.com,2013-02-17 17:20:00,
2013-02-17 12:35:00,24.1,11.1,29.78,ESE,112,2.2,-999.0,57,-99.99,,,0.00,Acu-Link.com,2013-02-17 17:35:00,
2013-02-17 12:50:00,25.5,9.5,29.77,WNW,292,6.8,-999.0,50,-99.99,,,0.00,Acu-Link.com,2013-02-17 17:50:00,
2013-02-17 13:06:00,25.2,8.8,29.77,WSW,247,7.3,-999.0,49,-99.99,,,0.00,Acu-Link.com,2013-02-17 18:06:00,
2013-02-17 13:21:00,24.8,6.5,29.77,West,270,9.4,-999.0,45,-99.99,,,0.00,Acu-Link.com,2013-02-17 18:21:00,
2013-02-17 13:36:00,27.7,7.6,29.77,WSW,247,9.9,-999.0,42,-99.99,,,0.00,Acu-Link.com,2013-02-17 18:36:00,
2013-02-17 13:51:00,26.8,8.3,29.77,West,270,8.3,-999.0,45,-99.99,,,0.00,Acu-Link.com,2013-02-17 18:51:00,
2013-02-17 14:06:00,25.5,6.7,29.77,ESE,112,6.8,-999.0,44,-99.99,,,0.00,Acu-Link.com,2013-02-17 19:06:00,
2013-02-17 14:21:00,26.8,4.1,29.76,NE,45,11.9,-999.0,37,-99.99,,,0.00,Acu-Link.com,2013-02-17 19:21:00,
2013-02-17 14:36:00,26.2,2.9,29.76,West,270,5.8,-999.0,36,-99.99,,,0.00,Acu-Link.com,2013-02-17 19:36:00,
2013-02-17 14:51:00,25.2,3.8,29.77,NE,45,7.3,-999.0,39,-99.99,,,0.00,Acu-Link.com,2013-02-17 19:51:00,
2013-02-17 15:07:00,23.5,2.8,29.77,NW,315,9.9,-999.0,40,-99.99,,,0.00,Acu-Link.com,2013-02-17 20:07:00,
2013-02-17 15:22:00,24.1,2.8,29.76,WNW,292,9.9,-999.0,39,-99.99,,,0.00,Acu-Link.com,2013-02-17 20:22:00,
2013-02-17 15:37:00,23.5,4.3,29.76,NE,45,9.4,-999.0,43,-99.99,,,0.00,Acu-Link.com,2013-02-17 20:37:00,
2013-02-17 15:52:00,23.0,3.4,29.77,NW,315,11.4,-999.0,42,-99.99,,,0.00,Acu-Link.com,2013-02-17 20:52:00,
2013-02-17 16:07:00,22.5,2.4,29.78,ENE,67,4.2,-999.0,41,-99.99,,,0.00,Acu-Link.com,2013-02-17 21:07:00,
2013-02-17 16:22:00,22.6,2.5,29.77,WSW,247,11.9,-999.0,41,-99.99,,,0.00,Acu-Link.com,2013-02-17 21:22:00,
2013-02-17 16:37:00,22.5,1.9,29.77,West,270,8.9,-999.0,40,-99.99,,,0.00,Acu-Link.com,2013-02-17 21:37:00,
2013-02-17 16:52:00,21.4,3.4,29.78,WNW,292,14.5,-999.0,45,-99.99,,,0.00,Acu-Link.com,2013-02-17 21:52:00,
2013-02-17 17:07:00,21.0,2.5,29.80,WSW,247,8.9,-999.0,44,-99.99,,,0.00,Acu-Link.com,2013-02-17 22:07:00,
2013-02-17 17:23:00,20.5,3.0,29.81,NNE,22,5.3,-999.0,46,-99.99,,,0.00,Acu-Link.com,2013-02-17 22:23:00,
2013-02-17 17:38:00,19.9,3.9,29.83,West,270,4.7,-999.0,49,-99.99,,,0.00,Acu-Link.com,2013-02-17 22:38:00,
2013-02-17 17:53:00,19.6,4.0,29.85,West,270,8.9,-999.0,50,-99.99,,,0.00,Acu-Link.com,2013-02-17 22:53:00,
2013-02-17 18:08:00,19.2,3.6,29.86,West,270,8.9,-999.0,50,-99.99,,,0.00,Acu-Link.com,2013-02-17 23:08:00,
2013-02-17 18:23:00,18.9,2.9,29.87,WNW,292,12.5,-999.0,49,-99.99,,,0.00,Acu-Link.com,2013-02-17 23:23:00,
2013-02-17 18:38:00,18.9,4.2,29.87,West,270,4.7,-999.0,52,-99.99,,,0.00,Acu-Link.com,2013-02-17 23:38:00,
2013-02-17 18:53:00,18.7,4.0,29.88,NW,315,11.4,-999.0,52,-99.99,,,0.00,Acu-Link.com,2013-02-17 23:53:00,
2013-02-17 19:08:00,18.5,2.6,29.90,West,270,9.9,-999.0,49,-99.99,,,0.00,Acu-Link.com,2013-02-18 00:08:00,
2013-02-17 19:23:00,18.3,1.9,29.91,West,270,13.5,-999.0,48,-99.99,,,0.00,Acu-Link.com,2013-02-18 00:23:00,
2013-02-17 19:39:00,18.1,2.2,29.92,SSW,202,4.7,-999.0,49,-99.99,,,0.00,Acu-Link.com,2013-02-18 00:39:00,
2013-02-17 19:54:00,17.8,2.3,29.93,WNW,292,11.9,-999.0,50,-99.99,,,0.00,Acu-Link.com,2013-02-18 00:54:00,
2013-02-17 20:09:00,17.8,3.2,29.94,SW,225,6.3,-999.0,52,-99.99,,,0.00,Acu-Link.com,2013-02-18 01:09:00,
2013-02-17 20:24:00,17.6,4.6,29.94,NNW,337,5.3,-999.0,56,-99.99,,,0.00,Acu-Link.com,2013-02-18 01:24:00,
2013-02-17 20:39:00,17.4,5.6,29.95,West,270,6.8,-999.0,59,-99.99,,,0.00,Acu-Link.com,2013-02-18 01:39:00,
2013-02-17 20:54:00,17.1,5.6,29.96,NW,315,7.3,-999.0,60,-99.99,,,0.00,Acu-Link.com,2013-02-18 01:54:00,
2013-02-17 21:09:00,16.9,5.4,29.96,West,270,9.9,-999.0,60,-99.99,,,0.00,Acu-Link.com,2013-02-18 02:09:00,
2013-02-17 21:24:00,16.7,5.6,29.97,NNW,337,2.7,-999.0,61,-99.99,,,0.00,Acu-Link.com,2013-02-18 02:24:00,
2013-02-17 21:39:00,16.5,5.1,29.97,SW,225,3.2,-999.0,60,-99.99,,,0.00,Acu-Link.com,2013-02-18 02:39:00,
2013-02-17 21:55:00,16.9,5.4,29.98,South,180,3.7,-999.0,60,-99.99,,,0.00,Acu-Link.com,2013-02-18 02:55:00,
2013-02-17 22:10:00,16.9,5.1,29.98,WNW,292,5.8,-999.0,59,-99.99,,,0.00,Acu-Link.com,2013-02-18 03:10:00,
2013-02-17 22:25:00,16.9,5.1,29.98,East,90,3.2,-999.0,59,-99.99,,,0.00,Acu-Link.com,2013-02-18 03:25:00,
2013-02-17 22:40:00,17.1,4.9,29.99,NW,315,5.8,-999.0,58,-99.99,,,0.00,Acu-Link.com,2013-02-18 03:40:00,
2013-02-17 22:55:00,17.1,5.3,30.00,NE,45,3.2,-999.0,59,-99.99,,,0.00,Acu-Link.com,2013-02-18 03:55:00,
2013-02-17 23:10:00,17.1,5.3,30.00,NNW,337,3.7,-999.0,59,-99.99,,,0.00,Acu-Link.com,2013-02-18 04:10:00,
2013-02-17 23:26:00,17.2,5.4,30.01,NW,315,6.8,-999.0,59,-99.99,,,0.00,Acu-Link.com,2013-02-18 04:26:00,
2013-02-17 23:41:00,17.1,5.3,30.02,West,270,9.4,-999.0,59,-99.99,,,0.00,Acu-Link.com,2013-02-18 04:41:00,
2013-02-17 23:56:00,17.1,5.3,30.03,NW,315,5.3,-999.0,59,-99.99,,,0.00,Acu-Link.com,2013-02-18 04:56:00,